Terminal Aerodrome Forecast
Issued by NWS

Home | Current Version | Previous Version | Text Only | Print | Product List | Glossary On
Versions: 1 2 3 4 5 6 7 8 9 10 11 12 13 14 15 16 17 18 19 20 21 22 23 24 25
000
FTUS41 KGYX 270913 AAA
TAFAUG
TAF AMD
KAUG 270913Z 2709/2806 34018G28KT 1SM -SN BLSN BR OVC012
     FM271100 34014G22KT 3SM -SN BLSN BR BKN025
     FM271500 34008KT P6SM -SHSN BKN040=

USA.gov is the U.S. government's official web portal to all federal, state and local government web resources and services.